sensor_id;sensor_type;location;lat;lon;timestamp;P1;durP1;ratioP1;P2;durP2;ratioP2
20101;SDS011;10210;52.284;9.892;2022-08-01T00:01:24;5.97;;;3.07;;
20101;SDS011;10210;52.284;9.892;2022-08-01T00:03:50;7.53;;;3.30;;
20101;SDS011;10210;52.284;9.892;2022-08-01T00:06:15;6.57;;;3.17;;
20101;SDS011;10210;52.284;9.892;2022-08-01T00:08:41;6.83;;;3.30;;
20101;SDS011;10210;52.284;9.892;2022-08-01T00:11:07;6.63;;;3.23;;
20101;SDS011;10210;52.284;9.892;2022-08-01T00:13:34;6.37;;;2.97;;
20101;SDS011;10210;52.284;9.892;2022-08-01T00:16:00;8.13;;;3.60;;
20101;SDS011;10210;52.284;9.892;2022-08-01T00:18:26;6.47;;;3.10;;
20101;SDS011;10210;52.284;9.892;2022-08-01T00:20:51;8.00;;;3.17;;
20101;SDS011;10210;52.284;9.892;2022-08-01T00:23:17;7.27;;;3.30;;
20101;SDS011;10210;52.284;9.892;2022-08-01T00:25:43;7.67;;;3.33;;
20101;SDS011;10210;52.284;9.892;2022-08-01T00:28:08;7.87;;;3.33;;
20101;SDS011;10210;52.284;9.892;2022-08-01T00:30:34;12.37;;;3.60;;
20101;SDS011;10210;52.284;9.892;2022-08-01T00:33:01;7.40;;;3.60;;
20101;SDS011;10210;52.284;9.892;2022-08-01T00:35:27;8.97;;;3.87;;
20101;SDS011;10210;52.284;9.892;2022-08-01T00:37:53;8.37;;;3.67;;
20101;SDS011;10210;52.284;9.892;2022-08-01T00:40:19;8.50;;;4.00;;
20101;SDS011;10210;52.284;9.892;2022-08-01T00:42:45;9.60;;;4.07;;
20101;SDS011;10210;52.284;9.892;2022-08-01T00:45:11;10.03;;;4.37;;
20101;SDS011;10210;52.284;9.892;2022-08-01T00:47:37;11.13;;;4.47;;
20101;SDS011;10210;52.284;9.892;2022-08-01T00:50:04;10.47;;;4.17;;
20101;SDS011;10210;52.284;9.892;2022-08-01T00:52:31;10.07;;;3.67;;
20101;SDS011;10210;52.284;9.892;2022-08-01T00:54:57;9.33;;;3.73;;
20101;SDS011;10210;52.284;9.892;2022-08-01T00:57:24;9.20;;;3.73;;
20101;SDS011;10210;52.284;9.892;2022-08-01T00:59:50;11.20;;;4.33;;
20101;SDS011;10210;52.284;9.892;2022-08-01T01:02:17;9.17;;;4.07;;
20101;SDS011;10210;52.284;9.892;2022-08-01T01:04:43;9.33;;;3.80;;
20101;SDS011;10210;52.284;9.892;2022-08-01T01:07:10;8.27;;;3.97;;
20101;SDS011;10210;52.284;9.892;2022-08-01T01:09:56;9.67;;;3.87;;
20101;SDS011;10210;52.284;9.892;2022-08-01T01:12:43;11.30;;;4.30;;
20101;SDS011;10210;52.284;9.892;2022-08-01T01:15:34;9.40;;;4.30;;
20101;SDS011;10210;52.284;9.892;2022-08-01T01:20:43;13.73;;;4.77;;
20101;SDS011;10210;52.284;9.892;2022-08-01T01:29:41;11.93;;;4.27;;
20101;SDS011;10210;52.284;9.892;2022-08-01T01:32:14;11.43;;;4.93;;
20101;SDS011;10210;52.284;9.892;2022-08-01T01:34:48;10.13;;;4.40;;
20101;SDS011;10210;52.284;9.892;2022-08-01T01:37:20;9.37;;;4.10;;
20101;SDS011;10210;52.284;9.892;2022-08-01T01:39:50;10.13;;;4.17;;
20101;SDS011;10210;52.284;9.892;2022-08-01T01:42:17;9.80;;;3.90;;
20101;SDS011;10210;52.284;9.892;2022-08-01T01:44:45;8.70;;;4.00;;
20101;SDS011;10210;52.284;9.892;2022-08-01T01:47:14;8.70;;;3.83;;
20101;SDS011;10210;52.284;9.892;2022-08-01T01:49:44;9.93;;;3.60;;
20101;SDS011;10210;52.284;9.892;2022-08-01T01:52:13;10.30;;;3.80;;
20101;SDS011;10210;52.284;9.892;2022-08-01T01:54:45;6.33;;;3.13;;
20101;SDS011;10210;52.284;9.892;2022-08-01T01:57:15;8.90;;;3.27;;
20101;SDS011;10210;52.284;9.892;2022-08-01T01:59:43;7.73;;;3.30;;
20101;SDS011;10210;52.284;9.892;2022-08-01T02:02:12;8.73;;;3.40;;
20101;SDS011;10210;52.284;9.892;2022-08-01T02:04:41;8.10;;;3.00;;
20101;SDS011;10210;52.284;9.892;2022-08-01T02:07:11;8.33;;;3.33;;
20101;SDS011;10210;52.284;9.892;2022-08-01T02:09:44;8.87;;;3.17;;
20101;SDS011;10210;52.284;9.892;2022-08-01T02:12:12;7.37;;;2.97;;
20101;SDS011;10210;52.284;9.892;2022-08-01T02:14:41;8.70;;;3.20;;
20101;SDS011;10210;52.284;9.892;2022-08-01T02:17:10;7.37;;;3.03;;
20101;SDS011;10210;52.284;9.892;2022-08-01T02:19:41;7.90;;;3.27;;
20101;SDS011;10210;52.284;9.892;2022-08-01T02:22:08;8.70;;;3.30;;
20101;SDS011;10210;52.284;9.892;2022-08-01T02:24:43;9.40;;;3.47;;
20101;SDS011;10210;52.284;9.892;2022-08-01T02:27:17;6.70;;;3.00;;
20101;SDS011;10210;52.284;9.892;2022-08-01T02:30:03;7.33;;;3.20;;
20101;SDS011;10210;52.284;9.892;2022-08-01T02:32:38;8.73;;;3.10;;
20101;SDS011;10210;52.284;9.892;2022-08-01T02:35:28;5.83;;;2.53;;
20101;SDS011;10210;52.284;9.892;2022-08-01T02:38:01;7.23;;;2.80;;
20101;SDS011;10210;52.284;9.892;2022-08-01T02:40:31;6.80;;;2.70;;
20101;SDS011;10210;52.284;9.892;2022-08-01T02:43:02;5.00;;;2.40;;
20101;SDS011;10210;52.284;9.892;2022-08-01T02:45:31;6.67;;;2.53;;
20101;SDS011;10210;52.284;9.892;2022-08-01T02:48:10;4.00;;;2.27;;
20101;SDS011;10210;52.284;9.892;2022-08-01T02:50:39;8.13;;;2.40;;
20101;SDS011;10210;52.284;9.892;2022-08-01T02:53:10;7.17;;;2.27;;
20101;SDS011;10210;52.284;9.892;2022-08-01T02:55:39;4.10;;;2.07;;
20101;SDS011;10210;52.284;9.892;2022-08-01T02:58:07;3.70;;;2.03;;
20101;SDS011;10210;52.284;9.892;2022-08-01T03:00:36;4.20;;;1.80;;
20101;SDS011;10210;52.284;9.892;2022-08-01T03:03:05;4.87;;;2.00;;
20101;SDS011;10210;52.284;9.892;2022-08-01T03:05:32;4.20;;;2.00;;
20101;SDS011;10210;52.284;9.892;2022-08-01T03:08:01;5.97;;;2.20;;
20101;SDS011;10210;52.284;9.892;2022-08-01T03:10:28;5.43;;;2.40;;
20101;SDS011;10210;52.284;9.892;2022-08-01T03:12:56;6.67;;;2.50;;
20101;SDS011;10210;52.284;9.892;2022-08-01T03:15:26;8.13;;;2.93;;
20101;SDS011;10210;52.284;9.892;2022-08-01T03:17:55;5.73;;;2.33;;
20101;SDS011;10210;52.284;9.892;2022-08-01T03:20:25;5.27;;;2.30;;
20101;SDS011;10210;52.284;9.892;2022-08-01T03:22:54;7.47;;;2.70;;
20101;SDS011;10210;52.284;9.892;2022-08-01T03:25:29;4.30;;;2.00;;
20101;SDS011;10210;52.284;9.892;2022-08-01T03:27:59;6.43;;;2.30;;
20101;SDS011;10210;52.284;9.892;2022-08-01T03:30:29;5.27;;;2.30;;
20101;SDS011;10210;52.284;9.892;2022-08-01T03:32:58;6.90;;;2.13;;
20101;SDS011;10210;52.284;9.892;2022-08-01T03:35:28;3.43;;;1.70;;
20101;SDS011;10210;52.284;9.892;2022-08-01T03:37:59;2.70;;;1.60;;
20101;SDS011;10210;52.284;9.892;2022-08-01T03:40:30;3.47;;;1.60;;
20101;SDS011;10210;52.284;9.892;2022-08-01T03:43:04;3.37;;;1.80;;
20101;SDS011;10210;52.284;9.892;2022-08-01T03:45:39;2.30;;;1.43;;
20101;SDS011;10210;52.284;9.892;2022-08-01T03:48:10;5.43;;;2.10;;
20101;SDS011;10210;52.284;9.892;2022-08-01T03:50:41;3.50;;;1.97;;
20101;SDS011;10210;52.284;9.892;2022-08-01T03:53:11;3.73;;;1.67;;
20101;SDS011;10210;52.284;9.892;2022-08-01T03:55:39;2.63;;;1.80;;
20101;SDS011;10210;52.284;9.892;2022-08-01T03:58:08;3.17;;;1.80;;
20101;SDS011;10210;52.284;9.892;2022-08-01T04:00:36;3.80;;;1.80;;
20101;SDS011;10210;52.284;9.892;2022-08-01T04:03:10;3.83;;;1.50;;
20101;SDS011;10210;52.284;9.892;2022-08-01T04:05:40;3.63;;;1.60;;
20101;SDS011;10210;52.284;9.892;2022-08-01T04:08:07;2.67;;;1.70;;
20101;SDS011;10210;52.284;9.892;2022-08-01T04:10:33;3.43;;;1.80;;
20101;SDS011;10210;52.284;9.892;2022-08-01T04:12:59;2.37;;;1.63;;
20101;SDS011;10210;52.284;9.892;2022-08-01T04:15:25;3.27;;;1.93;;
20101;SDS011;10210;52.284;9.892;2022-08-01T04:17:51;5.53;;;2.33;;
20101;SDS011;10210;52.284;9.892;2022-08-01T04:20:18;4.33;;;2.20;;
20101;SDS011;10210;52.284;9.892;2022-08-01T04:22:45;6.93;;;2.70;;
20101;SDS011;10210;52.284;9.892;2022-08-01T04:25:12;4.07;;;2.03;;
20101;SDS011;10210;52.284;9.892;2022-08-01T04:27:50;5.07;;;2.50;;
20101;SDS011;10210;52.284;9.892;2022-08-01T04:30:22;4.70;;;2.40;;
20101;SDS011;10210;52.284;9.892;2022-08-01T04:32:55;5.00;;;2.43;;
20101;SDS011;10210;52.284;9.892;2022-08-01T04:35:24;7.47;;;2.40;;
20101;SDS011;10210;52.284;9.892;2022-08-01T04:37:51;5.17;;;2.20;;
20101;SDS011;10210;52.284;9.892;2022-08-01T04:40:19;6.70;;;2.93;;
20101;SDS011;10210;52.284;9.892;2022-08-01T04:42:49;4.80;;;2.70;;
20101;SDS011;10210;52.284;9.892;2022-08-01T04:45:15;6.57;;;3.10;;
20101;SDS011;10210;52.284;9.892;2022-08-01T04:47:42;7.87;;;3.37;;
20101;SDS011;10210;52.284;9.892;2022-08-01T04:50:08;9.83;;;4.13;;
20101;SDS011;10210;52.284;9.892;2022-08-01T04:52:36;9.77;;;4.20;;
20101;SDS011;10210;52.284;9.892;2022-08-01T04:55:04;9.83;;;4.40;;
20101;SDS011;10210;52.284;9.892;2022-08-01T04:57:31;10.40;;;4.60;;
20101;SDS011;10210;52.284;9.892;2022-08-01T05:00:03;11.50;;;4.80;;
20101;SDS011;10210;52.284;9.892;2022-08-01T05:02:31;11.10;;;4.50;;
20101;SDS011;10210;52.284;9.892;2022-08-01T05:04:58;10.67;;;5.00;;
20101;SDS011;10210;52.284;9.892;2022-08-01T05:07:24;10.27;;;4.50;;
20101;SDS011;10210;52.284;9.892;2022-08-01T05:09:50;10.53;;;4.67;;
20101;SDS011;10210;52.284;9.892;2022-08-01T05:12:16;11.20;;;5.10;;
20101;SDS011;10210;52.284;9.892;2022-08-01T05:14:42;11.20;;;4.67;;
20101;SDS011;10210;52.284;9.892;2022-08-01T05:17:08;11.73;;;5.03;;
20101;SDS011;10210;52.284;9.892;2022-08-01T05:19:35;11.50;;;4.63;;
20101;SDS011;10210;52.284;9.892;2022-08-01T05:22:03;10.17;;;3.97;;
20101;SDS011;10210;52.284;9.892;2022-08-01T05:24:31;9.57;;;3.70;;
20101;SDS011;10210;52.284;9.892;2022-08-01T05:27:03;8.63;;;3.73;;
20101;SDS011;10210;52.284;9.892;2022-08-01T05:29:30;9.87;;;3.90;;
20101;SDS011;10210;52.284;9.892;2022-08-01T05:31:56;9.43;;;4.00;;
20101;SDS011;10210;52.284;9.892;2022-08-01T05:34:22;9.60;;;4.07;;
20101;SDS011;10210;52.284;9.892;2022-08-01T05:36:48;7.70;;;3.50;;
20101;SDS011;10210;52.284;9.892;2022-08-01T05:39:14;9.10;;;3.87;;
20101;SDS011;10210;52.284;9.892;2022-08-01T05:41:40;9.67;;;4.03;;
20101;SDS011;10210;52.284;9.892;2022-08-01T05:44:07;9.67;;;4.10;;
20101;SDS011;10210;52.284;9.892;2022-08-01T05:46:33;8.03;;;3.63;;
20101;SDS011;10210;52.284;9.892;2022-08-01T05:48:59;9.63;;;3.83;;
20101;SDS011;10210;52.284;9.892;2022-08-01T05:51:27;9.23;;;3.57;;
20101;SDS011;10210;52.284;9.892;2022-08-01T05:53:54;7.47;;;3.33;;
20101;SDS011;10210;52.284;9.892;2022-08-01T05:56:20;8.13;;;3.20;;
20101;SDS011;10210;52.284;9.892;2022-08-01T05:58:47;9.23;;;3.77;;
20101;SDS011;10210;52.284;9.892;2022-08-01T06:01:17;7.40;;;2.97;;
20101;SDS011;10210;52.284;9.892;2022-08-01T06:03:43;5.93;;;2.83;;
20101;SDS011;10210;52.284;9.892;2022-08-01T06:06:10;6.40;;;2.60;;
20101;SDS011;10210;52.284;9.892;2022-08-01T06:08:36;5.33;;;2.50;;
20101;SDS011;10210;52.284;9.892;2022-08-01T06:11:01;5.20;;;2.37;;
20101;SDS011;10210;52.284;9.892;2022-08-01T06:13:27;4.80;;;2.40;;
20101;SDS011;10210;52.284;9.892;2022-08-01T06:15:53;4.20;;;2.40;;
20101;SDS011;10210;52.284;9.892;2022-08-01T06:18:19;4.80;;;2.60;;
20101;SDS011;10210;52.284;9.892;2022-08-01T06:20:44;3.77;;;2.17;;
20101;SDS011;10210;52.284;9.892;2022-08-01T06:23:10;4.40;;;2.20;;
20101;SDS011;10210;52.284;9.892;2022-08-01T06:25:36;4.97;;;2.40;;
20101;SDS011;10210;52.284;9.892;2022-08-01T06:28:01;7.00;;;2.40;;
20101;SDS011;10210;52.284;9.892;2022-08-01T06:30:29;5.73;;;2.67;;
20101;SDS011;10210;52.284;9.892;2022-08-01T06:32:57;4.13;;;2.50;;
20101;SDS011;10210;52.284;9.892;2022-08-01T06:35:23;5.53;;;2.70;;
20101;SDS011;10210;52.284;9.892;2022-08-01T06:37:49;5.97;;;2.70;;
20101;SDS011;10210;52.284;9.892;2022-08-01T06:40:15;5.23;;;2.67;;
20101;SDS011;10210;52.284;9.892;2022-08-01T06:42:40;7.10;;;3.40;;
20101;SDS011;10210;52.284;9.892;2022-08-01T06:45:07;6.57;;;2.77;;
20101;SDS011;10210;52.284;9.892;2022-08-01T06:47:35;6.13;;;3.00;;
20101;SDS011;10210;52.284;9.892;2022-08-01T06:50:03;6.20;;;3.10;;
20101;SDS011;10210;52.284;9.892;2022-08-01T06:52:31;7.23;;;3.13;;
20101;SDS011;10210;52.284;9.892;2022-08-01T06:54:57;6.47;;;2.90;;
20101;SDS011;10210;52.284;9.892;2022-08-01T06:57:24;7.33;;;3.40;;
20101;SDS011;10210;52.284;9.892;2022-08-01T06:59:50;6.20;;;3.10;;
20101;SDS011;10210;52.284;9.892;2022-08-01T07:02:17;7.83;;;3.40;;
20101;SDS011;10210;52.284;9.892;2022-08-01T07:04:43;6.00;;;2.80;;
20101;SDS011;10210;52.284;9.892;2022-08-01T07:07:08;7.30;;;3.13;;
20101;SDS011;10210;52.284;9.892;2022-08-01T07:09:34;9.07;;;3.40;;
20101;SDS011;10210;52.284;9.892;2022-08-01T07:12:00;6.57;;;2.70;;
20101;SDS011;10210;52.284;9.892;2022-08-01T07:14:26;6.13;;;2.63;;
20101;SDS011;10210;52.284;9.892;2022-08-01T07:16:51;5.17;;;2.17;;
20101;SDS011;10210;52.284;9.892;2022-08-01T07:19:17;5.17;;;2.50;;
20101;SDS011;10210;52.284;9.892;2022-08-01T07:21:43;6.37;;;2.63;;
20101;SDS011;10210;52.284;9.892;2022-08-01T07:24:10;5.30;;;2.60;;
20101;SDS011;10210;52.284;9.892;2022-08-01T07:26:38;6.47;;;3.00;;
20101;SDS011;10210;52.284;9.892;2022-08-01T07:29:09;7.03;;;3.30;;
20101;SDS011;10210;52.284;9.892;2022-08-01T07:31:35;8.03;;;3.77;;
20101;SDS011;10210;52.284;9.892;2022-08-01T07:34:00;8.43;;;4.00;;
20101;SDS011;10210;52.284;9.892;2022-08-01T07:36:26;8.23;;;3.80;;
20101;SDS011;10210;52.284;9.892;2022-08-01T07:38:52;8.73;;;3.57;;
20101;SDS011;10210;52.284;9.892;2022-08-01T07:41:17;8.53;;;3.97;;
20101;SDS011;10210;52.284;9.892;2022-08-01T07:43:43;7.43;;;3.63;;
20101;SDS011;10210;52.284;9.892;2022-08-01T07:46:09;6.83;;;3.60;;
20101;SDS011;10210;52.284;9.892;2022-08-01T07:48:34;8.37;;;3.40;;
20101;SDS011;10210;52.284;9.892;2022-08-01T07:51:00;5.90;;;3.20;;
20101;SDS011;10210;52.284;9.892;2022-08-01T07:53:26;6.27;;;2.97;;
20101;SDS011;10210;52.284;9.892;2022-08-01T07:55:52;4.97;;;2.70;;
20101;SDS011;10210;52.284;9.892;2022-08-01T07:58:17;4.70;;;2.50;;
20101;SDS011;10210;52.284;9.892;2022-08-01T08:00:43;5.80;;;2.83;;
20101;SDS011;10210;52.284;9.892;2022-08-01T08:03:09;6.20;;;3.10;;
20101;SDS011;10210;52.284;9.892;2022-08-01T08:05:35;4.80;;;2.50;;
20101;SDS011;10210;52.284;9.892;2022-08-01T08:08:04;5.20;;;2.50;;
20101;SDS011;10210;52.284;9.892;2022-08-01T08:10:31;4.77;;;2.43;;
20101;SDS011;10210;52.284;9.892;2022-08-01T08:12:57;3.47;;;2.30;;
20101;SDS011;10210;52.284;9.892;2022-08-01T08:15:24;5.23;;;2.30;;
20101;SDS011;10210;52.284;9.892;2022-08-01T08:17:50;3.13;;;2.10;;
20101;SDS011;10210;52.284;9.892;2022-08-01T08:20:16;3.97;;;2.47;;
20101;SDS011;10210;52.284;9.892;2022-08-01T08:22:43;5.67;;;2.30;;
20101;SDS011;10210;52.284;9.892;2022-08-01T08:25:09;6.90;;;2.93;;
20101;SDS011;10210;52.284;9.892;2022-08-01T08:27:36;6.80;;;2.97;;
20101;SDS011;10210;52.284;9.892;2022-08-01T08:30:02;3.77;;;2.13;;
20101;SDS011;10210;52.284;9.892;2022-08-01T08:32:32;6.77;;;2.50;;
20101;SDS011;10210;52.284;9.892;2022-08-01T08:34:59;5.93;;;2.40;;
20101;SDS011;10210;52.284;9.892;2022-08-01T08:37:24;5.47;;;2.67;;
20101;SDS011;10210;52.284;9.892;2022-08-01T08:39:50;3.57;;;2.00;;
20101;SDS011;10210;52.284;9.892;2022-08-01T08:42:16;4.07;;;2.23;;
20101;SDS011;10210;52.284;9.892;2022-08-01T08:44:43;5.77;;;2.87;;
20101;SDS011;10210;52.284;9.892;2022-08-01T08:47:09;6.70;;;2.83;;
20101;SDS011;10210;52.284;9.892;2022-08-01T08:49:38;7.33;;;3.10;;
20101;SDS011;10210;52.284;9.892;2022-08-01T08:52:06;6.10;;;3.10;;
20101;SDS011;10210;52.284;9.892;2022-08-01T08:54:34;7.37;;;3.00;;
20101;SDS011;10210;52.284;9.892;2022-08-01T08:57:03;6.47;;;3.20;;
20101;SDS011;10210;52.284;9.892;2022-08-01T08:59:30;9.07;;;3.77;;
20101;SDS011;10210;52.284;9.892;2022-08-01T09:01:57;7.37;;;3.50;;
20101;SDS011;10210;52.284;9.892;2022-08-01T09:04:24;9.23;;;4.40;;
20101;SDS011;10210;52.284;9.892;2022-08-01T09:06:51;9.57;;;4.10;;
20101;SDS011;10210;52.284;9.892;2022-08-01T09:09:18;10.37;;;5.10;;
20101;SDS011;10210;52.284;9.892;2022-08-01T09:11:44;8.67;;;4.27;;
20101;SDS011;10210;52.284;9.892;2022-08-01T09:14:14;10.30;;;4.30;;
20101;SDS011;10210;52.284;9.892;2022-08-01T09:16:47;10.17;;;4.47;;
20101;SDS011;10210;52.284;9.892;2022-08-01T09:22:17;7.77;;;3.80;;
20101;SDS011;10210;52.284;9.892;2022-08-01T09:25:01;9.13;;;3.57;;
20101;SDS011;10210;52.284;9.892;2022-08-01T09:27:32;5.60;;;2.90;;
20101;SDS011;10210;52.284;9.892;2022-08-01T09:30:09;5.50;;;2.77;;
20101;SDS011;10210;52.284;9.892;2022-08-01T09:33:05;5.90;;;2.97;;
20101;SDS011;10210;52.284;9.892;2022-08-01T09:35:31;9.43;;;3.40;;
20101;SDS011;10210;52.284;9.892;2022-08-01T09:38:14;7.00;;;3.43;;
20101;SDS011;10210;52.284;9.892;2022-08-01T09:40:46;7.47;;;3.43;;
20101;SDS011;10210;52.284;9.892;2022-08-01T09:43:24;7.30;;;2.90;;
20101;SDS011;10210;52.284;9.892;2022-08-01T09:45:53;5.67;;;2.80;;
20101;SDS011;10210;52.284;9.892;2022-08-01T09:48:20;5.40;;;2.70;;
20101;SDS011;10210;52.284;9.892;2022-08-01T09:50:48;5.30;;;2.63;;
20101;SDS011;10210;52.284;9.892;2022-08-01T09:53:16;4.93;;;2.37;;
20101;SDS011;10210;52.284;9.892;2022-08-01T09:55:42;6.07;;;2.50;;
20101;SDS011;10210;52.284;9.892;2022-08-01T09:58:09;3.80;;;2.20;;
20101;SDS011;10210;52.284;9.892;2022-08-01T10:00:36;6.53;;;2.53;;
20101;SDS011;10210;52.284;9.892;2022-08-01T10:03:20;4.47;;;2.10;;
20101;SDS011;10210;52.284;9.892;2022-08-01T10:05:49;4.57;;;2.20;;
20101;SDS011;10210;52.284;9.892;2022-08-01T10:08:16;4.67;;;2.37;;
20101;SDS011;10210;52.284;9.892;2022-08-01T10:10:46;5.40;;;2.07;;
20101;SDS011;10210;52.284;9.892;2022-08-01T10:13:33;5.13;;;2.00;;
20101;SDS011;10210;52.284;9.892;2022-08-01T10:16:00;5.27;;;2.13;;
20101;SDS011;10210;52.284;9.892;2022-08-01T10:18:28;2.77;;;1.60;;
20101;SDS011;10210;52.284;9.892;2022-08-01T10:20:59;6.13;;;2.50;;
20101;SDS011;10210;52.284;9.892;2022-08-01T10:23:33;8.23;;;3.57;;
20101;SDS011;10210;52.284;9.892;2022-08-01T10:26:01;6.03;;;2.40;;
20101;SDS011;10210;52.284;9.892;2022-08-01T10:28:29;5.90;;;2.40;;
20101;SDS011;10210;52.284;9.892;2022-08-01T10:30:59;4.97;;;2.30;;
20101;SDS011;10210;52.284;9.892;2022-08-01T10:33:26;5.90;;;2.50;;
20101;SDS011;10210;52.284;9.892;2022-08-01T10:35:55;6.10;;;2.27;;
20101;SDS011;10210;52.284;9.892;2022-08-01T10:38:23;4.73;;;2.10;;
20101;SDS011;10210;52.284;9.892;2022-08-01T10:40:49;4.87;;;2.50;;
20101;SDS011;10210;52.284;9.892;2022-08-01T10:43:18;6.33;;;2.87;;
20101;SDS011;10210;52.284;9.892;2022-08-01T10:45:43;7.33;;;2.30;;
20101;SDS011;10210;52.284;9.892;2022-08-01T10:48:12;3.73;;;1.80;;
20101;SDS011;10210;52.284;9.892;2022-08-01T10:51:10;4.33;;;1.77;;
20101;SDS011;10210;52.284;9.892;2022-08-01T10:53:37;7.47;;;2.80;;
20101;SDS011;10210;52.284;9.892;2022-08-01T10:56:13;9.73;;;3.90;;
20101;SDS011;10210;52.284;9.892;2022-08-01T10:58:39;8.73;;;3.80;;
20101;SDS011;10210;52.284;9.892;2022-08-01T11:03:40;11.80;;;4.53;;
20101;SDS011;10210;52.284;9.892;2022-08-01T11:06:15;9.67;;;3.77;;
20101;SDS011;10210;52.284;9.892;2022-08-01T11:08:42;8.67;;;3.33;;
20101;SDS011;10210;52.284;9.892;2022-08-01T11:11:16;7.63;;;3.53;;
20101;SDS011;10210;52.284;9.892;2022-08-01T11:16:29;7.73;;;2.90;;
20101;SDS011;10210;52.284;9.892;2022-08-01T11:18:57;9.07;;;2.90;;
20101;SDS011;10210;52.284;9.892;2022-08-01T11:27:20;6.93;;;2.50;;
20101;SDS011;10210;52.284;9.892;2022-08-01T11:32:47;8.80;;;2.40;;
20101;SDS011;10210;52.284;9.892;2022-08-01T11:35:14;7.50;;;2.33;;
20101;SDS011;10210;52.284;9.892;2022-08-01T11:37:40;5.43;;;2.20;;
20101;SDS011;10210;52.284;9.892;2022-08-01T11:40:20;4.67;;;2.13;;
20101;SDS011;10210;52.284;9.892;2022-08-01T11:45:54;8.03;;;2.10;;
20101;SDS011;10210;52.284;9.892;2022-08-01T11:48:21;6.90;;;2.13;;
20101;SDS011;10210;52.284;9.892;2022-08-01T11:50:49;5.63;;;1.87;;
20101;SDS011;10210;52.284;9.892;2022-08-01T11:53:17;7.97;;;2.30;;
20101;SDS011;10210;52.284;9.892;2022-08-01T11:55:48;5.50;;;1.80;;
20101;SDS011;10210;52.284;9.892;2022-08-01T11:58:22;5.93;;;2.00;;
20101;SDS011;10210;52.284;9.892;2022-08-01T12:00:51;8.23;;;2.00;;
20101;SDS011;10210;52.284;9.892;2022-08-01T12:03:24;7.03;;;2.00;;
20101;SDS011;10210;52.284;9.892;2022-08-01T12:05:53;6.57;;;2.00;;
20101;SDS011;10210;52.284;9.892;2022-08-01T12:08:27;5.07;;;1.90;;
20101;SDS011;10210;52.284;9.892;2022-08-01T12:10:55;9.00;;;2.67;;
20101;SDS011;10210;52.284;9.892;2022-08-01T12:13:20;6.53;;;2.30;;
20101;SDS011;10210;52.284;9.892;2022-08-01T12:15:47;6.63;;;2.20;;
20101;SDS011;10210;52.284;9.892;2022-08-01T12:18:15;6.10;;;2.30;;
20101;SDS011;10210;52.284;9.892;2022-08-01T12:20:42;5.87;;;2.40;;
20101;SDS011;10210;52.284;9.892;2022-08-01T12:23:14;5.93;;;2.00;;
20101;SDS011;10210;52.284;9.892;2022-08-01T12:25:41;7.30;;;2.10;;
20101;SDS011;10210;52.284;9.892;2022-08-01T12:28:10;6.00;;;2.10;;
20101;SDS011;10210;52.284;9.892;2022-08-01T12:30:39;6.77;;;2.10;;
20101;SDS011;10210;52.284;9.892;2022-08-01T12:33:06;5.70;;;2.07;;
20101;SDS011;10210;52.284;9.892;2022-08-01T12:35:35;7.80;;;2.30;;
20101;SDS011;10210;52.284;9.892;2022-08-01T12:40:41;8.37;;;2.20;;
20101;SDS011;10210;52.284;9.892;2022-08-01T12:43:09;5.67;;;1.87;;
20101;SDS011;10210;52.284;9.892;2022-08-01T12:45:42;7.73;;;2.10;;
20101;SDS011;10210;52.284;9.892;2022-08-01T12:48:11;5.57;;;2.00;;
20101;SDS011;10210;52.284;9.892;2022-08-01T12:50:41;9.00;;;2.40;;
20101;SDS011;10210;52.284;9.892;2022-08-01T12:53:11;6.50;;;2.20;;
20101;SDS011;10210;52.284;9.892;2022-08-01T12:55:44;5.60;;;2.20;;
20101;SDS011;10210;52.284;9.892;2022-08-01T12:58:21;8.03;;;2.40;;
20101;SDS011;10210;52.284;9.892;2022-08-01T13:00:48;11.17;;;2.67;;
20101;SDS011;10210;52.284;9.892;2022-08-01T13:03:26;8.50;;;2.40;;
20101;SDS011;10210;52.284;9.892;2022-08-01T13:05:58;8.43;;;2.63;;
20101;SDS011;10210;52.284;9.892;2022-08-01T13:08:29;9.90;;;2.77;;
20101;SDS011;10210;52.284;9.892;2022-08-01T13:11:04;6.60;;;2.30;;
20101;SDS011;10210;52.284;9.892;2022-08-01T13:13:51;8.70;;;2.47;;
20101;SDS011;10210;52.284;9.892;2022-08-01T13:16:21;7.97;;;2.77;;
20101;SDS011;10210;52.284;9.892;2022-08-01T13:18:50;7.50;;;2.47;;
20101;SDS011;10210;52.284;9.892;2022-08-01T13:29:19;6.43;;;2.10;;
20101;SDS011;10210;52.284;9.892;2022-08-01T13:32:13;9.67;;;2.30;;
20101;SDS011;10210;52.284;9.892;2022-08-01T13:34:44;7.33;;;2.20;;
20101;SDS011;10210;52.284;9.892;2022-08-01T13:37:10;5.37;;;2.10;;
20101;SDS011;10210;52.284;9.892;2022-08-01T13:39:36;8.23;;;2.30;;
20101;SDS011;10210;52.284;9.892;2022-08-01T13:42:12;9.70;;;2.33;;
20101;SDS011;10210;52.284;9.892;2022-08-01T13:44:41;7.13;;;2.60;;
20101;SDS011;10210;52.284;9.892;2022-08-01T13:47:10;7.07;;;2.40;;
20101;SDS011;10210;52.284;9.892;2022-08-01T13:49:35;7.83;;;2.40;;
20101;SDS011;10210;52.284;9.892;2022-08-01T13:52:02;7.07;;;2.30;;
20101;SDS011;10210;52.284;9.892;2022-08-01T13:54:30;12.70;;;2.57;;
20101;SDS011;10210;52.284;9.892;2022-08-01T13:56:57;7.20;;;2.40;;
20101;SDS011;10210;52.284;9.892;2022-08-01T13:59:24;9.93;;;2.80;;
20101;SDS011;10210;52.284;9.892;2022-08-01T14:01:50;8.33;;;2.60;;
20101;SDS011;10210;52.284;9.892;2022-08-01T14:04:16;6.80;;;2.38;;
20101;SDS011;10210;52.284;9.892;2022-08-01T14:06:42;7.20;;;2.23;;
20101;SDS011;10210;52.284;9.892;2022-08-01T14:09:07;7.73;;;2.20;;
20101;SDS011;10210;52.284;9.892;2022-08-01T14:11:33;8.33;;;2.10;;
20101;SDS011;10210;52.284;9.892;2022-08-01T14:13:59;10.97;;;2.80;;
20101;SDS011;10210;52.284;9.892;2022-08-01T14:16:25;9.43;;;2.50;;
20101;SDS011;10210;52.284;9.892;2022-08-01T14:18:51;7.90;;;2.50;;
20101;SDS011;10210;52.284;9.892;2022-08-01T14:21:17;8.17;;;2.40;;
20101;SDS011;10210;52.284;9.892;2022-08-01T14:23:44;7.10;;;2.60;;
20101;SDS011;10210;52.284;9.892;2022-08-01T14:26:09;11.03;;;2.87;;
20101;SDS011;10210;52.284;9.892;2022-08-01T14:28:36;7.50;;;2.60;;
20101;SDS011;10210;52.284;9.892;2022-08-01T14:31:02;6.07;;;2.40;;
20101;SDS011;10210;52.284;9.892;2022-08-01T14:33:30;8.17;;;2.57;;
20101;SDS011;10210;52.284;9.892;2022-08-01T14:35:57;10.63;;;2.73;;
20101;SDS011;10210;52.284;9.892;2022-08-01T14:38:24;14.57;;;3.30;;
20101;SDS011;10210;52.284;9.892;2022-08-01T14:40:49;8.37;;;2.73;;
20101;SDS011;10210;52.284;9.892;2022-08-01T14:43:16;9.23;;;2.53;;
20101;SDS011;10210;52.284;9.892;2022-08-01T14:45:43;7.10;;;2.27;;
20101;SDS011;10210;52.284;9.892;2022-08-01T14:48:09;9.60;;;2.93;;
20101;SDS011;10210;52.284;9.892;2022-08-01T14:50:35;8.27;;;2.50;;
20101;SDS011;10210;52.284;9.892;2022-08-01T14:53:01;7.90;;;2.60;;
20101;SDS011;10210;52.284;9.892;2022-08-01T14:55:28;7.67;;;2.63;;
20101;SDS011;10210;52.284;9.892;2022-08-01T14:57:54;7.70;;;2.60;;
20101;SDS011;10210;52.284;9.892;2022-08-01T15:00:19;8.20;;;2.80;;
20101;SDS011;10210;52.284;9.892;2022-08-01T15:02:46;9.20;;;2.80;;
20101;SDS011;10210;52.284;9.892;2022-08-01T15:05:12;18.80;;;3.50;;
20101;SDS011;10210;52.284;9.892;2022-08-01T15:07:38;12.20;;;2.90;;
20101;SDS011;10210;52.284;9.892;2022-08-01T15:10:04;10.03;;;2.90;;
20101;SDS011;10210;52.284;9.892;2022-08-01T15:12:31;12.33;;;3.20;;
20101;SDS011;10210;52.284;9.892;2022-08-01T15:14:57;8.33;;;2.50;;
20101;SDS011;10210;52.284;9.892;2022-08-01T15:17:25;9.50;;;2.97;;
20101;SDS011;10210;52.284;9.892;2022-08-01T15:19:59;11.57;;;2.90;;
20101;SDS011;10210;52.284;9.892;2022-08-01T15:22:31;8.43;;;2.60;;
20101;SDS011;10210;52.284;9.892;2022-08-01T15:24:59;8.63;;;2.70;;
20101;SDS011;10210;52.284;9.892;2022-08-01T15:27:27;10.30;;;2.57;;
20101;SDS011;10210;52.284;9.892;2022-08-01T15:29:53;11.07;;;2.93;;
20101;SDS011;10210;52.284;9.892;2022-08-01T15:32:20;8.47;;;2.77;;
20101;SDS011;10210;52.284;9.892;2022-08-01T15:34:46;8.43;;;2.47;;